sensor_id;sensor_type;location;lat;lon;timestamp;temperature;humidity
1359;DHT22;673;48.098;14.422;2023-01-30T00:01:40;-0.60;99.90
1359;DHT22;673;48.098;14.422;2023-01-30T00:04:07;-0.60;99.90
1359;DHT22;673;48.098;14.422;2023-01-30T00:06:37;-0.50;99.90
1359;DHT22;673;48.098;14.422;2023-01-30T00:09:12;-0.50;99.90
1359;DHT22;673;48.098;14.422;2023-01-30T00:11:41;-0.50;99.90
1359;DHT22;673;48.098;14.422;2023-01-30T00:14:08;-0.50;99.90
1359;DHT22;673;48.098;14.422;2023-01-30T00:16:35;-0.60;99.90
1359;DHT22;673;48.098;14.422;2023-01-30T00:19:02;-0.60;99.90
1359;DHT22;673;48.098;14.422;2023-01-30T00:21:29;-0.60;99.90
1359;DHT22;673;48.098;14.422;2023-01-30T00:23:56;-0.70;99.90
1359;DHT22;673;48.098;14.422;2023-01-30T00:26:24;-0.70;99.90
1359;DHT22;673;48.098;14.422;2023-01-30T00:28:54;-0.60;99.90
1359;DHT22;673;48.098;14.422;2023-01-30T00:31:21;-0.60;99.90
1359;DHT22;673;48.098;14.422;2023-01-30T00:33:48;-0.60;99.90
1359;DHT22;673;48.098;14.422;2023-01-30T00:36:15;-0.60;99.90
1359;DHT22;673;48.098;14.422;2023-01-30T00:38:42;-0.60;99.90
1359;DHT22;673;48.098;14.422;2023-01-30T00:41:09;-0.70;99.90
1359;DHT22;673;48.098;14.422;2023-01-30T00:43:38;-0.60;99.90
1359;DHT22;673;48.098;14.422;2023-01-30T00:46:27;-0.70;99.90
1359;DHT22;673;48.098;14.422;2023-01-30T00:49:12;-0.70;99.90
1359;DHT22;673;48.098;14.422;2023-01-30T00:51:39;-0.70;99.90
1359;DHT22;673;48.098;14.422;2023-01-30T00:54:06;-0.60;99.90
1359;DHT22;673;48.098;14.422;2023-01-30T00:56:33;-0.60;99.90
1359;DHT22;673;48.098;14.422;2023-01-30T00:59:02;-0.60;99.90
1359;DHT22;673;48.098;14.422;2023-01-30T01:01:31;-0.70;99.90
1359;DHT22;673;48.098;14.422;2023-01-30T01:03:57;-0.70;99.90
1359;DHT22;673;48.098;14.422;2023-01-30T01:06:27;-0.70;99.90
1359;DHT22;673;48.098;14.422;2023-01-30T01:08:54;-0.70;99.90
1359;DHT22;673;48.098;14.422;2023-01-30T01:11:24;-0.70;99.90
1359;DHT22;673;48.098;14.422;2023-01-30T01:13:52;-0.80;99.90
1359;DHT22;673;48.098;14.422;2023-01-30T01:16:19;-0.80;99.90
1359;DHT22;673;48.098;14.422;2023-01-30T01:18:48;-0.80;99.90
1359;DHT22;673;48.098;14.422;2023-01-30T01:21:15;-0.70;99.90
1359;DHT22;673;48.098;14.422;2023-01-30T01:23:43;-0.70;99.90
1359;DHT22;673;48.098;14.422;2023-01-30T01:26:11;-0.70;99.90
1359;DHT22;673;48.098;14.422;2023-01-30T01:28:39;-0.70;99.90
1359;DHT22;673;48.098;14.422;2023-01-30T01:31:10;-0.70;99.90
1359;DHT22;673;48.098;14.422;2023-01-30T01:33:40;-0.70;99.90
1359;DHT22;673;48.098;14.422;2023-01-30T01:36:09;-0.70;99.90
1359;DHT22;673;48.098;14.422;2023-01-30T01:38:35;-0.70;99.90
1359;DHT22;673;48.098;14.422;2023-01-30T01:41:03;-0.60;99.90
1359;DHT22;673;48.098;14.422;2023-01-30T01:43:59;-0.70;99.90
1359;DHT22;673;48.098;14.422;2023-01-30T01:46:30;-0.70;99.90
1359;DHT22;673;48.098;14.422;2023-01-30T01:49:00;-0.70;99.90
1359;DHT22;673;48.098;14.422;2023-01-30T01:51:34;-0.70;99.90
1359;DHT22;673;48.098;14.422;2023-01-30T01:54:05;-0.70;99.90
1359;DHT22;673;48.098;14.422;2023-01-30T01:56:34;-0.70;99.90
1359;DHT22;673;48.098;14.422;2023-01-30T01:59:04;-0.60;99.90
1359;DHT22;673;48.098;14.422;2023-01-30T02:01:34;-0.60;99.90
1359;DHT22;673;48.098;14.422;2023-01-30T02:04:03;-0.60;99.90
1359;DHT22;673;48.098;14.422;2023-01-30T02:06:36;-0.60;99.90
1359;DHT22;673;48.098;14.422;2023-01-30T02:09:06;-0.60;99.90
1359;DHT22;673;48.098;14.422;2023-01-30T02:11:37;-0.60;99.90
1359;DHT22;673;48.098;14.422;2023-01-30T02:14:06;-0.60;99.90
1359;DHT22;673;48.098;14.422;2023-01-30T02:16:35;-0.60;99.90
1359;DHT22;673;48.098;14.422;2023-01-30T02:19:03;-0.60;99.90
1359;DHT22;673;48.098;14.422;2023-01-30T02:22:07;-0.60;99.90
1359;DHT22;673;48.098;14.422;2023-01-30T02:25:12;-0.60;99.90
1359;DHT22;673;48.098;14.422;2023-01-30T02:31:00;-0.50;99.90
1359;DHT22;673;48.098;14.422;2023-01-30T02:33:33;-0.60;99.90
1359;DHT22;673;48.098;14.422;2023-01-30T02:36:11;-0.60;99.90
1359;DHT22;673;48.098;14.422;2023-01-30T02:38:47;-0.70;99.90
1359;DHT22;673;48.098;14.422;2023-01-30T02:41:24;-0.70;99.90
1359;DHT22;673;48.098;14.422;2023-01-30T02:43:58;-0.90;99.90
1359;DHT22;673;48.098;14.422;2023-01-30T02:46:35;-1.00;99.90
1359;DHT22;673;48.098;14.422;2023-01-30T02:49:06;-0.90;99.90
1359;DHT22;673;48.098;14.422;2023-01-30T02:51:36;-1.00;99.90
1359;DHT22;673;48.098;14.422;2023-01-30T02:54:05;-1.00;99.90
1359;DHT22;673;48.098;14.422;2023-01-30T02:56:43;-1.00;99.90
1359;DHT22;673;48.098;14.422;2023-01-30T02:59:13;-1.00;99.90
1359;DHT22;673;48.098;14.422;2023-01-30T03:02:04;-1.00;99.90
1359;DHT22;673;48.098;14.422;2023-01-30T03:04:47;-0.90;99.90
1359;DHT22;673;48.098;14.422;2023-01-30T03:07:26;-0.90;99.90
1359;DHT22;673;48.098;14.422;2023-01-30T03:10:00;-0.90;99.90
1359;DHT22;673;48.098;14.422;2023-01-30T03:12:39;-0.90;99.90
1359;DHT22;673;48.098;14.422;2023-01-30T03:15:11;-0.90;99.90
1359;DHT22;673;48.098;14.422;2023-01-30T03:17:44;-0.90;99.90
1359;DHT22;673;48.098;14.422;2023-01-30T03:20:12;-0.90;99.90
1359;DHT22;673;48.098;14.422;2023-01-30T03:22:40;-0.90;99.90
1359;DHT22;673;48.098;14.422;2023-01-30T03:25:10;-0.90;99.90
1359;DHT22;673;48.098;14.422;2023-01-30T03:27:42;-0.90;99.90
1359;DHT22;673;48.098;14.422;2023-01-30T03:30:10;-0.90;99.90
1359;DHT22;673;48.098;14.422;2023-01-30T03:32:37;-0.90;99.90
1359;DHT22;673;48.098;14.422;2023-01-30T03:35:14;-0.90;99.90
1359;DHT22;673;48.098;14.422;2023-01-30T03:37:42;-0.90;99.90
1359;DHT22;673;48.098;14.422;2023-01-30T03:40:10;-1.00;99.90
1359;DHT22;673;48.098;14.422;2023-01-30T03:42:38;-1.00;99.90
1359;DHT22;673;48.098;14.422;2023-01-30T03:45:05;-1.00;99.90
1359;DHT22;673;48.098;14.422;2023-01-30T03:47:35;-1.00;99.90
1359;DHT22;673;48.098;14.422;2023-01-30T03:50:04;-1.10;99.90
1359;DHT22;673;48.098;14.422;2023-01-30T03:52:35;-1.10;99.90
1359;DHT22;673;48.098;14.422;2023-01-30T03:55:02;-1.10;99.90
1359;DHT22;673;48.098;14.422;2023-01-30T03:57:29;-1.10;99.90
1359;DHT22;673;48.098;14.422;2023-01-30T03:59:56;-1.10;99.90
1359;DHT22;673;48.098;14.422;2023-01-30T04:02:23;-1.20;99.90
1359;DHT22;673;48.098;14.422;2023-01-30T04:04:53;-1.20;99.90
1359;DHT22;673;48.098;14.422;2023-01-30T04:07:22;-1.30;99.90
1359;DHT22;673;48.098;14.422;2023-01-30T04:09:53;-1.30;99.90
1359;DHT22;673;48.098;14.422;2023-01-30T04:12:22;-1.40;99.90
1359;DHT22;673;48.098;14.422;2023-01-30T04:14:49;-1.50;99.90
1359;DHT22;673;48.098;14.422;2023-01-30T04:17:19;-1.60;99.90
1359;DHT22;673;48.098;14.422;2023-01-30T04:19:46;-1.60;99.90
1359;DHT22;673;48.098;14.422;2023-01-30T04:22:13;-1.60;99.90
1359;DHT22;673;48.098;14.422;2023-01-30T04:24:42;-1.70;99.90
1359;DHT22;673;48.098;14.422;2023-01-30T04:27:11;-1.70;99.90
1359;DHT22;673;48.098;14.422;2023-01-30T04:29:38;-1.80;99.90
1359;DHT22;673;48.098;14.422;2023-01-30T04:32:07;-1.70;99.90
1359;DHT22;673;48.098;14.422;2023-01-30T04:34:37;-1.80;99.90
1359;DHT22;673;48.098;14.422;2023-01-30T04:37:08;-1.80;99.90
1359;DHT22;673;48.098;14.422;2023-01-30T04:39:35;-1.90;99.90
1359;DHT22;673;48.098;14.422;2023-01-30T04:42:02;-1.90;99.90
1359;DHT22;673;48.098;14.422;2023-01-30T04:44:30;-1.90;99.90
1359;DHT22;673;48.098;14.422;2023-01-30T04:46:57;-2.00;99.90
1359;DHT22;673;48.098;14.422;2023-01-30T04:49:24;-2.00;99.90
1359;DHT22;673;48.098;14.422;2023-01-30T04:51:54;-2.00;99.90
1359;DHT22;673;48.098;14.422;2023-01-30T04:54:23;-2.00;99.90
1359;DHT22;673;48.098;14.422;2023-01-30T04:56:50;-2.00;99.90
1359;DHT22;673;48.098;14.422;2023-01-30T04:59:17;-1.90;99.90
1359;DHT22;673;48.098;14.422;2023-01-30T05:01:45;-2.00;99.90
1359;DHT22;673;48.098;14.422;2023-01-30T05:04:12;-2.00;99.90
1359;DHT22;673;48.098;14.422;2023-01-30T05:06:39;-2.00;99.90
1359;DHT22;673;48.098;14.422;2023-01-30T05:09:06;-2.00;99.90
1359;DHT22;673;48.098;14.422;2023-01-30T05:11:33;-1.70;99.90
1359;DHT22;673;48.098;14.422;2023-01-30T05:14:00;-1.60;99.90
1359;DHT22;673;48.098;14.422;2023-01-30T05:16:28;-1.50;99.90
1359;DHT22;673;48.098;14.422;2023-01-30T05:18:56;-1.50;99.90
1359;DHT22;673;48.098;14.422;2023-01-30T05:21:25;-1.50;99.90
1359;DHT22;673;48.098;14.422;2023-01-30T05:23:53;-1.50;99.90
1359;DHT22;673;48.098;14.422;2023-01-30T05:26:24;-1.60;99.90
1359;DHT22;673;48.098;14.422;2023-01-30T05:28:51;-1.60;99.90
1359;DHT22;673;48.098;14.422;2023-01-30T05:31:19;-1.60;99.90
1359;DHT22;673;48.098;14.422;2023-01-30T05:33:47;-1.70;99.90
1359;DHT22;673;48.098;14.422;2023-01-30T05:36:18;-1.60;99.90
1359;DHT22;673;48.098;14.422;2023-01-30T05:38:45;-1.60;99.90
1359;DHT22;673;48.098;14.422;2023-01-30T05:41:16;-1.50;99.90
1359;DHT22;673;48.098;14.422;2023-01-30T05:43:43;-1.50;99.90
1359;DHT22;673;48.098;14.422;2023-01-30T05:46:11;-1.40;99.90
1359;DHT22;673;48.098;14.422;2023-01-30T05:48:39;-1.30;99.90
1359;DHT22;673;48.098;14.422;2023-01-30T05:51:06;-1.30;99.90
1359;DHT22;673;48.098;14.422;2023-01-30T05:53:43;-1.20;99.90
1359;DHT22;673;48.098;14.422;2023-01-30T05:56:10;-1.20;99.90
1359;DHT22;673;48.098;14.422;2023-01-30T05:58:37;-1.20;99.90
1359;DHT22;673;48.098;14.422;2023-01-30T06:01:06;-1.20;99.90
1359;DHT22;673;48.098;14.422;2023-01-30T06:03:42;-1.20;99.90
1359;DHT22;673;48.098;14.422;2023-01-30T06:06:12;-1.20;99.90
1359;DHT22;673;48.098;14.422;2023-01-30T06:08:39;-1.20;99.90
1359;DHT22;673;48.098;14.422;2023-01-30T06:11:10;-1.20;99.90
1359;DHT22;673;48.098;14.422;2023-01-30T06:13:37;-1.10;99.90
1359;DHT22;673;48.098;14.422;2023-01-30T06:16:07;-1.10;99.90
1359;DHT22;673;48.098;14.422;2023-01-30T06:18:34;-1.10;99.90
1359;DHT22;673;48.098;14.422;2023-01-30T06:21:04;-1.10;99.90
1359;DHT22;673;48.098;14.422;2023-01-30T06:23:31;-1.00;99.90
1359;DHT22;673;48.098;14.422;2023-01-30T06:25:58;-1.00;99.90
1359;DHT22;673;48.098;14.422;2023-01-30T06:28:27;-1.00;99.90
1359;DHT22;673;48.098;14.422;2023-01-30T06:30:54;-1.00;99.90
1359;DHT22;673;48.098;14.422;2023-01-30T06:33:21;-1.10;99.90
1359;DHT22;673;48.098;14.422;2023-01-30T06:35:49;-1.10;99.90
1359;DHT22;673;48.098;14.422;2023-01-30T06:38:17;-1.10;99.90
1359;DHT22;673;48.098;14.422;2023-01-30T06:40:48;-1.20;99.90
1359;DHT22;673;48.098;14.422;2023-01-30T06:43:15;-1.20;99.90
1359;DHT22;673;48.098;14.422;2023-01-30T06:45:44;-1.30;99.90
1359;DHT22;673;48.098;14.422;2023-01-30T06:48:13;-1.30;99.90
1359;DHT22;673;48.098;14.422;2023-01-30T06:50:40;-1.30;99.90
1359;DHT22;673;48.098;14.422;2023-01-30T06:53:07;-1.30;99.90
1359;DHT22;673;48.098;14.422;2023-01-30T06:55:35;-1.20;99.90
1359;DHT22;673;48.098;14.422;2023-01-30T06:58:04;-1.20;99.90
1359;DHT22;673;48.098;14.422;2023-01-30T07:00:32;-1.10;99.90
1359;DHT22;673;48.098;14.422;2023-01-30T07:03:07;-1.10;99.90
1359;DHT22;673;48.098;14.422;2023-01-30T07:05:36;-1.10;99.90
1359;DHT22;673;48.098;14.422;2023-01-30T07:08:03;-1.10;99.90
1359;DHT22;673;48.098;14.422;2023-01-30T07:10:30;-1.00;99.90
1359;DHT22;673;48.098;14.422;2023-01-30T07:12:57;-0.90;99.90
1359;DHT22;673;48.098;14.422;2023-01-30T07:15:24;-0.70;99.90
1359;DHT22;673;48.098;14.422;2023-01-30T07:17:51;-0.70;99.90
1359;DHT22;673;48.098;14.422;2023-01-30T07:20:22;-0.60;99.90
1359;DHT22;673;48.098;14.422;2023-01-30T07:22:50;-0.60;99.90
1359;DHT22;673;48.098;14.422;2023-01-30T07:25:17;-0.60;99.90
1359;DHT22;673;48.098;14.422;2023-01-30T07:27:49;-0.60;99.90
1359;DHT22;673;48.098;14.422;2023-01-30T07:30:16;-0.60;99.90
1359;DHT22;673;48.098;14.422;2023-01-30T07:32:50;-0.60;99.90
1359;DHT22;673;48.098;14.422;2023-01-30T07:35:19;-0.60;99.90
1359;DHT22;673;48.098;14.422;2023-01-30T07:37:48;-0.70;99.90
1359;DHT22;673;48.098;14.422;2023-01-30T07:40:16;-0.60;99.90
1359;DHT22;673;48.098;14.422;2023-01-30T07:42:55;-0.60;99.90
1359;DHT22;673;48.098;14.422;2023-01-30T07:45:23;-0.50;99.90
1359;DHT22;673;48.098;14.422;2023-01-30T07:47:53;-0.40;99.90
1359;DHT22;673;48.098;14.422;2023-01-30T07:50:19;-0.40;99.90
1359;DHT22;673;48.098;14.422;2023-01-30T07:52:52;-0.30;99.90
1359;DHT22;673;48.098;14.422;2023-01-30T07:55:19;-0.20;99.90
1359;DHT22;673;48.098;14.422;2023-01-30T07:57:49;-0.10;99.90
1359;DHT22;673;48.098;14.422;2023-01-30T08:00:17;0.00;99.90
1359;DHT22;673;48.098;14.422;2023-01-30T08:02:44;0.00;99.90
1359;DHT22;673;48.098;14.422;2023-01-30T08:05:11;0.10;99.90
1359;DHT22;673;48.098;14.422;2023-01-30T08:07:41;0.20;99.90
1359;DHT22;673;48.098;14.422;2023-01-30T08:10:10;0.20;99.90
1359;DHT22;673;48.098;14.422;2023-01-30T08:12:38;0.30;99.90
1359;DHT22;673;48.098;14.422;2023-01-30T08:15:09;0.50;99.90
1359;DHT22;673;48.098;14.422;2023-01-30T08:17:37;0.50;99.90
1359;DHT22;673;48.098;14.422;2023-01-30T08:20:05;0.60;99.90
1359;DHT22;673;48.098;14.422;2023-01-30T08:22:33;0.70;99.90
1359;DHT22;673;48.098;14.422;2023-01-30T08:24:59;0.80;99.90
1359;DHT22;673;48.098;14.422;2023-01-30T08:27:28;0.90;99.90
1359;DHT22;673;48.098;14.422;2023-01-30T08:29:55;0.90;99.90
1359;DHT22;673;48.098;14.422;2023-01-30T08:32:22;1.00;99.90
1359;DHT22;673;48.098;14.422;2023-01-30T08:34:50;1.10;99.90
1359;DHT22;673;48.098;14.422;2023-01-30T08:37:17;1.10;99.90
1359;DHT22;673;48.098;14.422;2023-01-30T08:39:43;1.10;99.90
1359;DHT22;673;48.098;14.422;2023-01-30T08:42:10;1.10;99.90
1359;DHT22;673;48.098;14.422;2023-01-30T08:44:41;1.10;99.90
1359;DHT22;673;48.098;14.422;2023-01-30T08:47:08;1.20;99.90
1359;DHT22;673;48.098;14.422;2023-01-30T08:49:37;1.20;99.90
1359;DHT22;673;48.098;14.422;2023-01-30T08:52:04;1.30;99.90
1359;DHT22;673;48.098;14.422;2023-01-30T08:54:31;1.40;99.90
1359;DHT22;673;48.098;14.422;2023-01-30T08:57:00;1.40;99.90
1359;DHT22;673;48.098;14.422;2023-01-30T08:59:28;1.40;99.90
1359;DHT22;673;48.098;14.422;2023-01-30T09:01:58;1.50;99.90
1359;DHT22;673;48.098;14.422;2023-01-30T09:04:25;1.50;99.90
1359;DHT22;673;48.098;14.422;2023-01-30T09:06:54;1.50;99.90
1359;DHT22;673;48.098;14.422;2023-01-30T09:09:21;1.60;99.90
1359;DHT22;673;48.098;14.422;2023-01-30T09:11:51;1.60;99.90
1359;DHT22;673;48.098;14.422;2023-01-30T09:14:18;1.60;99.90
1359;DHT22;673;48.098;14.422;2023-01-30T09:16:49;1.80;99.90
1359;DHT22;673;48.098;14.422;2023-01-30T09:19:21;1.90;99.90
1359;DHT22;673;48.098;14.422;2023-01-30T09:21:48;1.90;99.90
1359;DHT22;673;48.098;14.422;2023-01-30T09:24:15;2.00;99.90
1359;DHT22;673;48.098;14.422;2023-01-30T09:26:42;2.00;99.90
1359;DHT22;673;48.098;14.422;2023-01-30T09:29:12;2.00;99.90
1359;DHT22;673;48.098;14.422;2023-01-30T09:31:40;2.00;99.90
1359;DHT22;673;48.098;14.422;2023-01-30T09:34:07;2.10;99.90
1359;DHT22;673;48.098;14.422;2023-01-30T09:36:38;2.10;99.90
1359;DHT22;673;48.098;14.422;2023-01-30T09:39:05;2.00;99.90
1359;DHT22;673;48.098;14.422;2023-01-30T09:47:29;2.20;99.90
1359;DHT22;673;48.098;14.422;2023-01-30T09:50:07;2.20;99.90
1359;DHT22;673;48.098;14.422;2023-01-30T09:52:49;2.30;99.90
1359;DHT22;673;48.098;14.422;2023-01-30T09:55:22;2.40;99.90
1359;DHT22;673;48.098;14.422;2023-01-30T09:57:56;2.40;99.90
1359;DHT22;673;48.098;14.422;2023-01-30T10:00:29;2.50;99.90
1359;DHT22;673;48.098;14.422;2023-01-30T10:03:02;2.40;99.90
1359;DHT22;673;48.098;14.422;2023-01-30T10:05:36;2.50;99.90
1359;DHT22;673;48.098;14.422;2023-01-30T10:08:24;2.50;99.90
1359;DHT22;673;48.098;14.422;2023-01-30T10:11:00;2.70;99.90
1359;DHT22;673;48.098;14.422;2023-01-30T10:13:53;2.80;99.90
1359;DHT22;673;48.098;14.422;2023-01-30T10:16:27;2.90;99.90
1359;DHT22;673;48.098;14.422;2023-01-30T10:19:03;3.00;99.90
1359;DHT22;673;48.098;14.422;2023-01-30T10:21:44;3.00;99.90
1359;DHT22;673;48.098;14.422;2023-01-30T10:24:38;3.00;99.90
1359;DHT22;673;48.098;14.422;2023-01-30T10:27:13;3.10;99.90
1359;DHT22;673;48.098;14.422;2023-01-30T10:29:44;3.20;99.90
1359;DHT22;673;48.098;14.422;2023-01-30T10:32:16;3.20;99.90
1359;DHT22;673;48.098;14.422;2023-01-30T10:34:47;3.30;99.90
1359;DHT22;673;48.098;14.422;2023-01-30T10:37:21;3.40;99.90
1359;DHT22;673;48.098;14.422;2023-01-30T10:39:57;3.40;99.90
1359;DHT22;673;48.098;14.422;2023-01-30T10:42:34;3.50;99.90
1359;DHT22;673;48.098;14.422;2023-01-30T10:45:10;3.40;99.90
1359;DHT22;673;48.098;14.422;2023-01-30T10:47:58;3.30;99.90
1359;DHT22;673;48.098;14.422;2023-01-30T10:50:33;3.20;99.90
1359;DHT22;673;48.098;14.422;2023-01-30T10:53:07;3.10;99.90
1359;DHT22;673;48.098;14.422;2023-01-30T10:55:43;3.10;99.90
1359;DHT22;673;48.098;14.422;2023-01-30T10:58:16;3.10;99.90
1359;DHT22;673;48.098;14.422;2023-01-30T11:00:51;3.00;99.90
1359;DHT22;673;48.098;14.422;2023-01-30T11:03:30;3.00;99.90
1359;DHT22;673;48.098;14.422;2023-01-30T11:06:00;3.00;99.90
1359;DHT22;673;48.098;14.422;2023-01-30T11:08:33;2.90;99.90
1359;DHT22;673;48.098;14.422;2023-01-30T11:11:21;2.90;99.90
1359;DHT22;673;48.098;14.422;2023-01-30T11:14:03;2.90;99.90
1359;DHT22;673;48.098;14.422;2023-01-30T11:16:39;2.90;99.90
1359;DHT22;673;48.098;14.422;2023-01-30T11:19:09;2.90;99.90
1359;DHT22;673;48.098;14.422;2023-01-30T11:21:38;3.00;99.90
1359;DHT22;673;48.098;14.422;2023-01-30T11:24:13;3.00;99.90
1359;DHT22;673;48.098;14.422;2023-01-30T11:26:42;3.10;99.90
1359;DHT22;673;48.098;14.422;2023-01-30T11:29:25;3.30;99.90
1359;DHT22;673;48.098;14.422;2023-01-30T11:31:53;3.40;99.90
1359;DHT22;673;48.098;14.422;2023-01-30T11:34:23;3.40;99.90
1359;DHT22;673;48.098;14.422;2023-01-30T11:36:53;3.40;99.90
1359;DHT22;673;48.098;14.422;2023-01-30T11:39:26;3.40;99.90
1359;DHT22;673;48.098;14.422;2023-01-30T11:42:00;3.40;99.90
1359;DHT22;673;48.098;14.422;2023-01-30T11:44:31;3.50;99.90
1359;DHT22;673;48.098;14.422;2023-01-30T11:46:59;3.60;99.90
1359;DHT22;673;48.098;14.422;2023-01-30T11:49:32;3.60;99.90
1359;DHT22;673;48.098;14.422;2023-01-30T11:52:04;3.60;99.90
1359;DHT22;673;48.098;14.422;2023-01-30T11:54:34;3.70;99.90
1359;DHT22;673;48.098;14.422;2023-01-30T11:57:08;3.70;99.90
1359;DHT22;673;48.098;14.422;2023-01-30T11:59:39;3.80;99.90
1359;DHT22;673;48.098;14.422;2023-01-30T12:02:15;3.80;99.90
1359;DHT22;673;48.098;14.422;2023-01-30T12:04:43;3.80;99.90
1359;DHT22;673;48.098;14.422;2023-01-30T12:07:17;3.80;99.90
1359;DHT22;673;48.098;14.422;2023-01-30T12:09:45;3.90;99.90
1359;DHT22;673;48.098;14.422;2023-01-30T12:12:30;3.90;99.90
1359;DHT22;673;48.098;14.422;2023-01-30T12:15:09;3.90;99.90
1359;DHT22;673;48.098;14.422;2023-01-30T12:17:43;3.90;99.90
1359;DHT22;673;48.098;14.422;2023-01-30T12:20:18;3.90;99.90
1359;DHT22;673;48.098;14.422;2023-01-30T12:22:54;3.80;99.90
1359;DHT22;673;48.098;14.422;2023-01-30T12:25:29;3.80;99.90
1359;DHT22;673;48.098;14.422;2023-01-30T12:28:01;3.80;99.90
1359;DHT22;673;48.098;14.422;2023-01-30T12:30:34;3.80;99.90
1359;DHT22;673;48.098;14.422;2023-01-30T12:33:04;3.80;99.90
1359;DHT22;673;48.098;14.422;2023-01-30T12:35:45;3.80;99.90
1359;DHT22;673;48.098;14.422;2023-01-30T12:38:26;3.70;99.90
1359;DHT22;673;48.098;14.422;2023-01-30T12:41:06;3.70;99.90
1359;DHT22;673;48.098;14.422;2023-01-30T12:43:59;3.70;99.90
1359;DHT22;673;48.098;14.422;2023-01-30T12:46:45;3.70;99.90
1359;DHT22;673;48.098;14.422;2023-01-30T12:49:44;3.80;99.90
1359;DHT22;673;48.098;14.422;2023-01-30T12:52:34;3.60;99.90
1359;DHT22;673;48.098;14.422;2023-01-30T12:55:21;3.50;99.90
1359;DHT22;673;48.098;14.422;2023-01-30T12:57:54;3.40;99.90
1359;DHT22;673;48.098;14.422;2023-01-30T13:00:45;3.30;99.90
1359;DHT22;673;48.098;14.422;2023-01-30T13:03:22;3.10;99.90
1359;DHT22;673;48.098;14.422;2023-01-30T13:06:03;3.00;99.90
1359;DHT22;673;48.098;14.422;2023-01-30T13:08:51;2.80;99.90
1359;DHT22;673;48.098;14.422;2023-01-30T13:11:39;2.70;99.90
1359;DHT22;673;48.098;14.422;2023-01-30T13:14:18;2.70;99.90
1359;DHT22;673;48.098;14.422;2023-01-30T13:16:58;2.70;99.90
1359;DHT22;673;48.098;14.422;2023-01-30T13:19:33;2.60;99.90
1359;DHT22;673;48.098;14.422;2023-01-30T13:22:07;2.50;99.90
1359;DHT22;673;48.098;14.422;2023-01-30T13:24:47;2.40;99.90
1359;DHT22;673;48.098;14.422;2023-01-30T13:27:18;2.30;99.90
1359;DHT22;673;48.098;14.422;2023-01-30T13:29:47;2.20;99.90
1359;DHT22;673;48.098;14.422;2023-01-30T13:32:25;2.10;99.90
1359;DHT22;673;48.098;14.422;2023-01-30T13:34:53;2.00;99.90
1359;DHT22;673;48.098;14.422;2023-01-30T13:37:23;1.90;99.90
1359;DHT22;673;48.098;14.422;2023-01-30T13:39:51;1.90;99.90
1359;DHT22;673;48.098;14.422;2023-01-30T13:42:26;1.80;99.90
1359;DHT22;673;48.098;14.422;2023-01-30T13:44:55;1.70;99.90
1359;DHT22;673;48.098;14.422;2023-01-30T13:47:41;1.70;99.90
1359;DHT22;673;48.098;14.422;2023-01-30T13:53:13;1.60;99.90
1359;DHT22;673;48.098;14.422;2023-01-30T13:55:48;1.50;99.90
1359;DHT22;673;48.098;14.422;2023-01-30T13:58:31;1.50;99.90
1359;DHT22;673;48.098;14.422;2023-01-30T14:01:02;1.50;99.90
1359;DHT22;673;48.098;14.422;2023-01-30T14:03:31;1.50;99.90
1359;DHT22;673;48.098;14.422;2023-01-30T14:06:04;1.50;99.90
1359;DHT22;673;48.098;14.422;2023-01-30T14:08:37;1.40;99.90
1359;DHT22;673;48.098;14.422;2023-01-30T14:11:41;1.40;99.90
1359;DHT22;673;48.098;14.422;2023-01-30T14:14:29;1.40;99.90
1359;DHT22;673;48.098;14.422;2023-01-30T14:17:07;1.40;99.90
1359;DHT22;673;48.098;14.422;2023-01-30T14:19:41;1.50;99.90
1359;DHT22;673;48.098;14.422;2023-01-30T14:22:24;1.50;99.90
1359;DHT22;673;48.098;14.422;2023-01-30T14:31:50;1.40;99.90
1359;DHT22;673;48.098;14.422;2023-01-30T14:34:54;1.40;99.90
1359;DHT22;673;48.098;14.422;2023-01-30T14:41:15;1.50;99.90
1359;DHT22;673;48.098;14.422;2023-01-30T14:43:51;1.50;99.90
1359;DHT22;673;48.098;14.422;2023-01-30T14:46:38;1.50;99.90
1359;DHT22;673;48.098;14.422;2023-01-30T14:49:22;1.50;99.90
1359;DHT22;673;48.098;14.422;2023-01-30T14:51:58;1.50;99.90
1359;DHT22;673;48.098;14.422;2023-01-30T14:54:32;1.50;99.90
1359;DHT22;673;48.098;14.422;2023-01-30T14:57:02;1.60;99.90
1359;DHT22;673;48.098;14.422;2023-01-30T14:59:34;1.60;99.90
1359;DHT22;673;48.098;14.422;2023-01-30T15:02:08;1.60;99.90
1359;DHT22;673;48.098;14.422;2023-01-30T15:04:48;1.60;99.90
1359;DHT22;673;48.098;14.422;2023-01-30T15:07:19;1.60;99.90
1359;DHT22;673;48.098;14.422;2023-01-30T15:09:51;1.60;99.90
1359;DHT22;673;48.098;14.422;2023-01-30T15:15:25;1.50;99.90
1359;DHT22;673;48.098;14.422;2023-01-30T15:18:10;1.50;99.90
1359;DHT22;673;48.098;14.422;2023-01-30T15:20:48;1.50;99.90
1359;DHT22;673;48.098;14.422;2023-01-30T15:23:36;1.50;99.90
1359;DHT22;673;48.098;14.422;2023-01-30T15:26:13;1.50;99.90
1359;DHT22;673;48.098;14.422;2023-01-30T15:28:52;1.40;99.90
1359;DHT22;673;48.098;14.422;2023-01-30T15:31:24;1.40;99.90
1359;DHT22;673;48.098;14.422;2023-01-30T15:33:53;1.40;99.90
1359;DHT22;673;48.098;14.422;2023-01-30T15:36:26;1.40;99.90
1359;DHT22;673;48.098;14.422;2023-01-30T15:38:59;1.40;99.90
1359;DHT22;673;48.098;14.422;2023-01-30T15:41:28;1.40;99.90
1359;DHT22;673;48.098;14.422;2023-01-30T15:44:27;1.40;99.90
1359;DHT22;673;48.098;14.422;2023-01-30T15:47:10;1.30;99.90
1359;DHT22;673;48.098;14.422;2023-01-30T15:49:50;1.40;99.90
1359;DHT22;673;48.098;14.422;2023-01-30T15:52:24;1.40;99.90
1359;DHT22;673;48.098;14.422;2023-01-30T15:54:56;1.40;99.90
1359;DHT22;673;48.098;14.422;2023-01-30T15:57:25;1.60;99.90
1359;DHT22;673;48.098;14.422;2023-01-30T15:59:55;1.70;99.90
1359;DHT22;673;48.098;14.422;2023-01-30T16:02:30;1.80;99.90
1359;DHT22;673;48.098;14.422;2023-01-30T16:05:14;1.80;99.90
1359;DHT22;673;48.098;14.422;2023-01-30T16:07:42;1.90;99.90
1359;DHT22;673;48.098;14.422;2023-01-30T16:10:15;1.80;99.90
1359;DHT22;673;48.098;14.422;2023-01-30T16:12:44;1.90;99.90
1359;DHT22;673;48.098;14.422;2023-01-30T16:15:13;1.90;99.90
1359;DHT22;673;48.098;14.422;2023-01-30T16:17:51;2.00;99.90
1359;DHT22;673;48.098;14.422;2023-01-30T16:20:23;2.00;99.90
1359;DHT22;673;48.098;14.422;2023-01-30T16:22:50;2.10;99.90
1359;DHT22;673;48.098;14.422;2023-01-30T16:25:20;2.10;99.90
1359;DHT22;673;48.098;14.422;2023-01-30T16:27:48;2.10;99.90
1359;DHT22;673;48.098;14.422;2023-01-30T16:30:24;2.10;99.90
1359;DHT22;673;48.098;14.422;2023-01-30T16:32:56;2.10;99.90
1359;DHT22;673;48.098;14.422;2023-01-30T16:35:28;2.10;99.90
1359;DHT22;673;48.098;14.422;2023-01-30T16:37:59;2.10;99.90
1359;DHT22;673;48.098;14.422;2023-01-30T16:40:41;2.20;99.90
1359;DHT22;673;48.098;14.422;2023-01-30T16:43:17;2.20;99.90
1359;DHT22;673;48.098;14.422;2023-01-30T16:48:50;2.20;99.90
1359;DHT22;673;48.098;14.422;2023-01-30T16:51:22;2.30;99.90
1359;DHT22;673;48.098;14.422;2023-01-30T16:54:01;2.40;99.90
1359;DHT22;673;48.098;14.422;2023-01-30T16:56:30;2.40;99.90
1359;DHT22;673;48.098;14.422;2023-01-30T16:59:01;2.50;99.90
1359;DHT22;673;48.098;14.422;2023-01-30T17:01:39;2.50;99.90
1359;DHT22;673;48.098;14.422;2023-01-30T17:04:18;2.50;99.90
1359;DHT22;673;48.098;14.422;2023-01-30T17:06:52;2.50;99.90
1359;DHT22;673;48.098;14.422;2023-01-30T17:09:35;2.40;99.90
1359;DHT22;673;48.098;14.422;2023-01-30T17:12:33;2.40;99.90